Terminal Aerodrome Forecast
Issued by NWS Charleston, WV

Current Version | Previous Version | Graphics & Text | Print | Product List | Glossary On
Versions: 1 2 3 4 5 6 7 8 9 10 11 12 13 14 15 16 17 18 19 20 21 22 23 24 25 26 27 28 29 30 31 32 33
000
FTUS41 KRLX 251500 AAA
TAFEKN
TAF AMD
KEKN 251507Z 2515/2612 25006KT P6SM SCT250
     FM252000 25007KT P6SM BKN040
     FM260400 27008KT P6SM BKN025
     FM260700 29010G19KT P6SM SCT025 BKN250
     FM261100 28006KT P6SM SCT250=

USA.gov is the U.S. government's official web portal to all federal, state and local government web resources and services.